createdAt,value
2023-03-11T00:02:53.541Z,0.80
2023-03-11T00:05:56.592Z,0.80
2023-03-11T00:12:01.558Z,0.93
2023-03-11T00:15:04.027Z,0.80
2023-03-11T00:18:06.912Z,0.70
2023-03-11T00:21:16.167Z,0.70
2023-03-11T00:27:20.579Z,0.73
2023-03-11T00:30:24.068Z,1.00
2023-03-11T00:33:26.391Z,9.23
2023-03-11T00:36:33.992Z,11.27
2023-03-11T00:39:36.275Z,0.85
2023-03-11T00:42:38.518Z,0.75
2023-03-11T00:45:40.962Z,1.13
2023-03-11T00:48:43.247Z,1.50
2023-03-11T00:51:45.714Z,1.00
2023-03-11T00:54:47.942Z,2.17
2023-03-11T00:57:55.578Z,1.83
2023-03-11T01:00:59.692Z,2.22
2023-03-11T01:04:02.211Z,1.48
2023-03-11T01:07:04.493Z,1.65
2023-03-11T01:10:07.891Z,2.60
2023-03-11T01:13:10.131Z,1.98
2023-03-11T01:16:12.596Z,2.63
2023-03-11T01:19:15.161Z,1.98
2023-03-11T01:22:17.687Z,1.55
2023-03-11T01:25:21.566Z,1.80
2023-03-11T01:28:24.656Z,2.25
2023-03-11T01:34:29.170Z,1.88
2023-03-11T01:37:31.530Z,3.00
2023-03-11T01:40:36.960Z,1.05
2023-03-11T01:43:45.470Z,2.20
2023-03-11T01:46:54.174Z,2.80
2023-03-11T01:50:05.882Z,2.67
2023-03-11T01:53:08.724Z,2.55
2023-03-11T01:56:11.204Z,1.70
2023-03-11T01:59:16.667Z,1.58
2023-03-11T02:02:23.605Z,2.47
2023-03-11T02:05:26.225Z,4.05
2023-03-11T02:08:30.156Z,2.75
2023-03-11T02:11:33.309Z,1.27
2023-03-11T02:14:36.458Z,1.17
2023-03-11T02:21:21.504Z,2.47
2023-03-11T02:24:29.733Z,2.20
2023-03-11T02:27:33.963Z,2.50
2023-03-11T02:30:42.728Z,6.20
2023-03-11T02:33:46.759Z,4.00
2023-03-11T02:36:49.732Z,2.88
2023-03-11T02:39:54.210Z,1.23
2023-03-11T02:42:58.926Z,2.05
2023-03-11T02:46:01.783Z,3.75
2023-03-11T02:49:05.178Z,1.90
2023-03-11T02:52:09.813Z,2.67
2023-03-11T02:55:12.386Z,1.88
2023-03-11T02:58:15.658Z,2.97
2023-03-11T03:01:18.317Z,3.28
2023-03-11T03:04:21.829Z,1.75
2023-03-11T03:07:24.248Z,2.70
2023-03-11T03:10:26.787Z,2.08
2023-03-11T03:13:29.657Z,1.98
2023-03-11T03:19:34.564Z,2.85
2023-03-11T03:22:37.960Z,2.05
2023-03-11T03:25:44.437Z,1.85
2023-03-11T03:28:47.029Z,2.90
2023-03-11T03:31:49.438Z,3.47
2023-03-11T03:34:58.260Z,2.47
2023-03-11T03:38:09.933Z,2.97
2023-03-11T03:41:15.675Z,1.60
2023-03-11T03:44:18.350Z,1.52
2023-03-11T03:47:21.484Z,2.55
2023-03-11T03:50:24.145Z,1.08
2023-03-11T03:53:28.552Z,1.92
2023-03-11T03:56:30.860Z,2.20
2023-03-11T03:59:33.180Z,2.67
2023-03-11T04:02:38.052Z,2.15
2023-03-11T04:05:40.754Z,1.75
2023-03-11T04:08:43.269Z,1.98
2023-03-11T04:11:47.032Z,1.85
2023-03-11T04:14:51.131Z,1.67
2023-03-11T04:17:53.436Z,1.85
2023-03-11T04:20:55.887Z,2.42
2023-03-11T04:23:58.486Z,1.23
2023-03-11T04:27:05.674Z,3.13
2023-03-11T04:30:10.368Z,1.75
2023-03-11T04:33:12.741Z,4.50
2023-03-11T04:36:15.238Z,4.43
2023-03-11T04:39:18.157Z,2.35
2023-03-11T04:42:21.820Z,5.55
2023-03-11T04:45:24.746Z,3.65
2023-03-11T04:48:30.355Z,12.73
2023-03-11T04:51:32.675Z,8.23
2023-03-11T04:54:34.998Z,11.35
2023-03-11T04:57:37.390Z,17.02
2023-03-11T05:00:39.959Z,13.50
2023-03-11T05:03:46.415Z,17.85
2023-03-11T05:06:51.242Z,18.73
2023-03-11T05:09:54.253Z,21.08
2023-03-11T05:12:56.532Z,25.05
2023-03-11T05:16:02.641Z,30.17
2023-03-11T05:19:25.219Z,29.33
2023-03-11T05:22:27.765Z,30.08
2023-03-11T05:25:31.138Z,21.33
2023-03-11T05:28:33.864Z,15.70
2023-03-11T05:31:37.010Z,25.25
2023-03-11T05:34:39.646Z,18.48
2023-03-11T05:37:42.800Z,27.35
2023-03-11T05:40:45.417Z,20.38
2023-03-11T05:43:47.801Z,18.92
2023-03-11T05:46:50.348Z,26.45
2023-03-11T05:49:52.817Z,16.77
2023-03-11T05:52:55.942Z,11.60
2023-03-11T05:55:59.185Z,15.82
2023-03-11T05:59:03.068Z,11.63
2023-03-11T06:02:08.782Z,6.80
2023-03-11T06:05:13.447Z,11.23
2023-03-11T06:08:17.563Z,6.10
2023-03-11T06:11:19.999Z,8.43
2023-03-11T06:14:22.845Z,8.98
2023-03-11T06:17:28.678Z,32.35
2023-03-11T06:20:32.223Z,11.27
2023-03-11T06:23:34.632Z,7.00
2023-03-11T06:26:37.665Z,5.28
2023-03-11T06:29:40.144Z,5.68
2023-03-11T06:32:45.045Z,3.80
2023-03-11T06:35:59.246Z,2.67
2023-03-11T06:39:01.634Z,4.25
2023-03-11T06:42:04.677Z,1.95
2023-03-11T06:45:08.236Z,1.75
2023-03-11T06:48:10.721Z,2.03
2023-03-11T06:51:14.234Z,2.42
2023-03-11T06:57:20.400Z,9.73
2023-03-11T07:00:31.189Z,6.60
2023-03-11T07:03:35.076Z,1.88
2023-03-11T07:06:37.513Z,2.42
2023-03-11T07:09:44.609Z,2.42
2023-03-11T07:12:49.342Z,1.90
2023-03-11T07:16:00.617Z,1.60
2023-03-11T07:19:03.349Z,3.30
2023-03-11T07:22:05.629Z,2.25
2023-03-11T07:25:08.205Z,1.88
2023-03-11T07:28:10.454Z,2.05
2023-03-11T07:31:16.627Z,1.35
2023-03-11T07:34:19.007Z,4.32
2023-03-11T07:37:21.269Z,6.82
2023-03-11T07:40:23.518Z,3.08
2023-03-11T07:43:25.966Z,32.80
2023-03-11T07:46:29.873Z,10.32
2023-03-11T07:49:32.307Z,2.45
2023-03-11T07:52:34.561Z,3.00
2023-03-11T07:55:36.806Z,2.55
2023-03-11T07:58:39.414Z,3.30
2023-03-11T08:01:47.507Z,5.28
2023-03-11T08:04:49.787Z,1.15
2023-03-11T08:07:52.022Z,2.42
2023-03-11T08:10:54.347Z,3.40
2023-03-11T08:13:57.890Z,10.63
2023-03-11T08:17:00.143Z,40.28
2023-03-11T08:20:02.414Z,1.75
2023-03-11T08:23:04.861Z,1.75
2023-03-11T08:26:09.298Z,1.73
2023-03-11T08:29:11.607Z,1.73
2023-03-11T08:32:13.905Z,1.88
2023-03-11T08:35:16.944Z,1.70
2023-03-11T08:38:19.295Z,2.03
2023-03-11T08:41:21.526Z,1.90
2023-03-11T08:44:23.777Z,2.30
2023-03-11T08:47:26.082Z,2.40
2023-03-11T08:50:28.322Z,2.05
2023-03-11T08:53:32.633Z,3.13
2023-03-11T08:56:34.965Z,1.50
2023-03-11T08:59:37.341Z,1.88
2023-03-11T09:02:39.721Z,1.40
2023-03-11T09:05:42.077Z,1.65
2023-03-11T09:08:45.393Z,2.03
2023-03-11T09:11:48.746Z,2.45
2023-03-11T09:14:50.985Z,2.92
2023-03-11T09:17:54.317Z,2.97
2023-03-11T09:20:58.456Z,1.73
2023-03-11T09:24:01.359Z,3.72
2023-03-11T09:27:04.009Z,3.90
2023-03-11T09:30:06.974Z,3.78
2023-03-11T09:33:09.318Z,2.90
2023-03-11T09:36:16.880Z,2.08
2023-03-11T09:39:19.148Z,1.95
2023-03-11T09:42:27.620Z,2.70
2023-03-11T09:45:31.863Z,1.98
2023-03-11T09:48:49.564Z,3.63
2023-03-11T09:52:19.576Z,1.92
2023-03-11T09:55:22.024Z,3.28
2023-03-11T09:58:27.510Z,2.10
2023-03-11T10:01:45.249Z,1.52
2023-03-11T10:04:50.534Z,8.60
2023-03-11T10:07:59.566Z,3.35
2023-03-11T10:11:44.846Z,2.30
2023-03-11T10:14:47.672Z,5.57
2023-03-11T10:18:23.183Z,2.22
2023-03-11T10:21:42.366Z,2.22
2023-03-11T10:25:00.149Z,2.75
2023-03-11T10:28:08.582Z,2.38
2023-03-11T10:31:25.020Z,4.18
2023-03-11T10:35:00.834Z,2.05
2023-03-11T10:38:22.456Z,3.58
2023-03-11T10:41:44.321Z,5.80
2023-03-11T10:44:46.574Z,3.42
2023-03-11T10:47:49.108Z,2.38
2023-03-11T10:51:22.381Z,6.03
2023-03-11T10:54:31.728Z,7.32
2023-03-11T10:57:36.378Z,5.93
2023-03-11T11:00:38.638Z,2.38
2023-03-11T11:03:46.247Z,7.05
2023-03-11T11:06:48.803Z,5.38
2023-03-11T11:10:21.185Z,2.63
2023-03-11T11:13:25.793Z,6.28
2023-03-11T11:16:28.946Z,2.50
2023-03-11T11:22:33.227Z,3.60
2023-03-11T11:26:01.505Z,2.67
2023-03-11T11:32:24.897Z,7.93
2023-03-11T11:35:27.319Z,4.72
2023-03-11T11:38:52.312Z,3.95
2023-03-11T11:41:56.727Z,3.20
2023-03-11T11:45:47.267Z,3.50
2023-03-11T11:49:01.189Z,9.60
2023-03-11T11:52:16.309Z,3.95
2023-03-11T11:55:26.266Z,3.47
2023-03-11T11:58:28.688Z,1.85
2023-03-11T12:01:40.559Z,2.95
2023-03-11T12:04:45.754Z,5.40
2023-03-11T12:08:00.225Z,4.78
2023-03-11T12:11:07.516Z,2.78
2023-03-11T12:14:25.878Z,3.90
2023-03-11T12:17:30.227Z,4.18
2023-03-11T12:20:54.373Z,6.20
2023-03-11T12:24:25.636Z,4.15
2023-03-11T12:27:33.145Z,8.13
2023-03-11T12:30:38.348Z,3.13
2023-03-11T12:33:46.338Z,6.53
2023-03-11T12:36:49.788Z,2.60
2023-03-11T12:39:52.080Z,6.45
2023-03-11T12:42:54.343Z,5.30
2023-03-11T12:45:59.509Z,4.57
2023-03-11T12:49:08.001Z,2.78
2023-03-11T12:52:13.334Z,2.92
2023-03-11T12:55:18.625Z,6.05
2023-03-11T12:58:32.111Z,2.65
2023-03-11T13:02:06.939Z,4.65
2023-03-11T13:05:28.289Z,2.40
2023-03-11T13:08:51.415Z,6.45
2023-03-11T13:11:53.675Z,3.00
2023-03-11T13:15:20.791Z,7.55
2023-03-11T13:18:26.861Z,2.38
2023-03-11T13:21:31.667Z,3.80
2023-03-11T13:24:33.885Z,3.75
2023-03-11T13:27:42.081Z,6.32
2023-03-11T13:31:06.006Z,5.55
2023-03-11T13:34:24.661Z,9.27
2023-03-11T13:37:33.484Z,6.63
2023-03-11T13:40:43.976Z,4.47
2023-03-11T13:43:48.812Z,1.77
2023-03-11T13:46:53.957Z,2.92
2023-03-11T13:50:25.242Z,6.03
2023-03-11T13:53:38.856Z,4.43
2023-03-11T13:56:49.185Z,2.17
2023-03-11T13:59:53.830Z,2.30
2023-03-11T14:03:01.596Z,3.55
2023-03-11T14:06:06.989Z,3.20
2023-03-11T14:09:21.248Z,2.95
2023-03-11T14:12:23.476Z,6.75
2023-03-11T14:15:26.962Z,5.78
2023-03-11T14:18:41.170Z,7.47
2023-03-11T14:21:45.058Z,3.00
2023-03-11T14:24:48.220Z,13.02
2023-03-11T14:30:59.078Z,3.40
2023-03-11T14:34:07.664Z,4.68
2023-03-11T14:37:31.089Z,3.58
2023-03-11T14:40:37.799Z,4.57
2023-03-11T14:43:44.297Z,3.72
2023-03-11T14:46:46.990Z,4.38
2023-03-11T14:49:50.079Z,3.08
2023-03-11T14:52:59.548Z,3.10
2023-03-11T14:59:12.543Z,3.78
2023-03-11T15:02:38.025Z,4.63
2023-03-11T15:05:44.209Z,3.97
2023-03-11T15:08:57.240Z,4.15
2023-03-11T15:12:01.969Z,3.53
2023-03-11T15:15:21.727Z,2.55
2023-03-11T15:18:26.619Z,3.05
2023-03-11T15:21:32.386Z,4.38
2023-03-11T15:24:34.826Z,13.50
2023-03-11T15:27:41.716Z,3.78
2023-03-11T15:30:43.989Z,7.10
2023-03-11T15:33:46.412Z,4.45
2023-03-11T15:36:48.641Z,4.10
2023-03-11T15:39:52.279Z,4.38
2023-03-11T15:43:20.757Z,3.10
2023-03-11T15:46:23.034Z,8.10
2023-03-11T15:49:25.618Z,4.63
2023-03-11T15:52:27.932Z,3.75
2023-03-11T15:55:30.190Z,4.07
2023-03-11T15:58:32.400Z,4.40
2023-03-11T16:01:35.079Z,4.35
2023-03-11T16:04:37.536Z,5.47
2023-03-11T16:07:40.275Z,5.40
2023-03-11T16:10:43.267Z,3.67
2023-03-11T16:13:45.586Z,4.63
2023-03-11T16:16:47.988Z,3.88
2023-03-11T16:19:50.250Z,3.70
2023-03-11T16:22:55.873Z,3.63
2023-03-11T16:26:00.345Z,2.80
2023-03-11T16:29:16.528Z,25.38
2023-03-11T16:32:20.951Z,11.02
2023-03-11T16:35:24.036Z,6.53
2023-03-11T16:38:26.446Z,4.22
2023-03-11T16:41:28.769Z,6.63
2023-03-11T16:44:31.014Z,4.93
2023-03-11T16:47:33.322Z,3.50
2023-03-11T16:50:37.407Z,2.97
2023-03-11T16:53:40.142Z,4.13
2023-03-11T16:56:42.441Z,3.45
2023-03-11T16:59:44.888Z,2.90
2023-03-11T17:02:47.115Z,4.90
2023-03-11T17:05:49.734Z,5.38
2023-03-11T17:08:52.052Z,3.05
2023-03-11T17:11:54.290Z,4.35
2023-03-11T17:14:56.722Z,4.55
2023-03-11T17:17:59.094Z,4.18
2023-03-11T17:21:05.905Z,3.80
2023-03-11T17:24:09.485Z,4.22
2023-03-11T17:27:11.812Z,3.33
2023-03-11T17:30:19.371Z,4.28
2023-03-11T17:33:27.123Z,5.22
2023-03-11T17:36:29.402Z,3.85
2023-03-11T17:39:31.656Z,5.38
2023-03-11T17:42:33.972Z,3.70
2023-03-11T17:45:38.625Z,3.83
2023-03-11T17:48:42.246Z,5.97
2023-03-11T17:51:44.534Z,4.22
2023-03-11T17:54:46.911Z,5.70
2023-03-11T17:57:49.152Z,4.43
2023-03-11T18:00:51.425Z,7.18
2023-03-11T18:03:54.226Z,13.70
2023-03-11T18:06:56.837Z,5.47
2023-03-11T18:09:59.111Z,4.07
2023-03-11T18:13:01.496Z,4.15
2023-03-11T18:16:04.943Z,4.47
2023-03-11T18:19:07.245Z,3.53
2023-03-11T18:22:09.545Z,4.15
2023-03-11T18:25:12.825Z,3.95
2023-03-11T18:31:19.835Z,3.97
2023-03-11T18:34:23.255Z,3.55
2023-03-11T18:40:28.024Z,3.42
2023-03-11T18:43:30.287Z,3.75
2023-03-11T18:46:33.153Z,4.40
2023-03-11T18:49:35.424Z,4.03
2023-03-11T18:52:37.780Z,4.47
2023-03-11T18:55:40.060Z,4.15
2023-03-11T18:58:42.549Z,4.50
2023-03-11T19:01:44.938Z,17.38
2023-03-11T19:04:47.429Z,8.68
2023-03-11T19:07:49.728Z,17.63
2023-03-11T19:10:52.177Z,4.82
2023-03-11T19:13:55.231Z,3.80
2023-03-11T19:16:57.519Z,3.38
2023-03-11T19:19:59.773Z,4.60
2023-03-11T19:23:02.186Z,3.65
2023-03-11T19:26:04.743Z,3.92
2023-03-11T19:29:08.012Z,3.90
2023-03-11T19:35:17.402Z,4.13
2023-03-11T19:38:20.781Z,4.18
2023-03-11T19:44:25.641Z,4.30
2023-03-11T19:47:28.178Z,4.07
2023-03-11T19:50:30.415Z,4.13
2023-03-11T19:53:33.672Z,4.78
2023-03-11T19:56:35.984Z,4.70
2023-03-11T19:59:38.268Z,4.35
2023-03-11T20:02:40.607Z,3.28
2023-03-11T20:05:45.395Z,4.38
2023-03-11T20:08:47.649Z,5.35
2023-03-11T20:11:50.041Z,5.57
2023-03-11T20:14:52.336Z,3.97
2023-03-11T20:17:54.755Z,4.78
2023-03-11T20:20:57.075Z,4.75
2023-03-11T20:24:00.166Z,4.88
2023-03-11T20:27:02.535Z,4.85
2023-03-11T20:30:05.376Z,5.45
2023-03-11T20:33:08.163Z,4.72
2023-03-11T20:36:14.055Z,4.80
2023-03-11T20:39:16.785Z,5.47
2023-03-11T20:42:19.185Z,4.80
2023-03-11T20:45:22.046Z,4.47
2023-03-11T20:48:24.650Z,4.93
2023-03-11T20:51:26.992Z,5.53
2023-03-11T20:54:29.421Z,5.50
2023-03-11T20:57:31.668Z,4.30
2023-03-11T21:00:34.676Z,5.00
2023-03-11T21:03:37.132Z,6.07
2023-03-11T21:06:41.142Z,4.93
2023-03-11T21:09:43.504Z,4.35
2023-03-11T21:12:45.868Z,4.85
2023-03-11T21:15:48.284Z,6.22
2023-03-11T21:18:50.622Z,5.28
2023-03-11T21:21:53.102Z,4.68
2023-03-11T21:24:55.845Z,5.18
2023-03-11T21:27:58.116Z,6.13
2023-03-11T21:31:03.417Z,5.05
2023-03-11T21:34:05.971Z,5.72
2023-03-11T21:37:08.262Z,6.43
2023-03-11T21:40:11.351Z,5.35
2023-03-11T21:43:13.730Z,6.78
2023-03-11T21:46:18.516Z,4.80
2023-03-11T21:49:21.074Z,6.28
2023-03-11T21:52:23.454Z,4.28
2023-03-11T21:55:25.749Z,6.03
2023-03-11T21:58:28.114Z,5.93
2023-03-11T22:01:30.727Z,4.60
2023-03-11T22:04:33.316Z,4.90
2023-03-11T22:07:35.567Z,7.45
2023-03-11T22:10:38.765Z,5.10
2023-03-11T22:13:41.304Z,5.60
2023-03-11T22:16:43.667Z,6.55
2023-03-11T22:19:46.050Z,4.30
2023-03-11T22:22:48.677Z,4.43
2023-03-11T22:25:50.964Z,4.93
2023-03-11T22:28:53.241Z,4.22
2023-03-11T22:31:55.511Z,5.90
2023-03-11T22:34:57.966Z,5.32
2023-03-11T22:38:00.310Z,5.90
2023-03-11T22:41:07.566Z,5.68
2023-03-11T22:44:09.862Z,4.80
2023-03-11T22:47:12.388Z,4.78
2023-03-11T22:50:14.705Z,6.20
2023-03-11T22:53:17.435Z,4.88
2023-03-11T22:56:20.028Z,5.60
2023-03-11T22:59:22.346Z,4.88
2023-03-11T23:02:24.671Z,4.38
2023-03-11T23:05:27.033Z,5.72
2023-03-11T23:08:29.399Z,7.53
2023-03-11T23:11:31.695Z,4.45
2023-03-11T23:14:44.682Z,4.68
2023-03-11T23:17:47.644Z,4.78
2023-03-11T23:20:49.955Z,5.75
2023-03-11T23:23:52.702Z,4.38
2023-03-11T23:26:54.903Z,4.15
2023-03-11T23:29:57.162Z,7.30
2023-03-11T23:33:02.812Z,5.88
2023-03-11T23:36:07.867Z,5.30
2023-03-11T23:39:10.226Z,4.20
2023-03-11T23:42:25.108Z,5.55
2023-03-11T23:45:28.252Z,5.45
2023-03-11T23:48:30.782Z,6.38
2023-03-11T23:51:33.050Z,4.88
2023-03-11T23:54:35.705Z,4.90
2023-03-11T23:57:38.057Z,4.80
